createdAt,value
2022-10-20T00:01:04.197Z,13.47
2022-10-20T00:03:32.268Z,13.58
2022-10-20T00:06:10.552Z,13.56
2022-10-20T00:08:38.889Z,13.58
2022-10-20T00:11:07.314Z,13.55
2022-10-20T00:13:35.227Z,13.51
2022-10-20T00:16:03.411Z,13.51
2022-10-20T00:18:31.012Z,13.50
2022-10-20T00:20:58.511Z,13.52
2022-10-20T00:23:26.208Z,13.56
2022-10-20T00:26:05.176Z,13.49
2022-10-20T00:28:33.161Z,13.50
2022-10-20T00:31:00.733Z,13.52
2022-10-20T00:33:28.189Z,13.60
2022-10-20T00:35:59.822Z,13.63
2022-10-20T00:38:27.272Z,13.58
2022-10-20T00:40:54.937Z,13.39
2022-10-20T00:43:22.970Z,13.30
2022-10-20T00:45:56.239Z,13.13
2022-10-20T00:48:27.604Z,13.12
2022-10-20T00:50:56.425Z,13.09
2022-10-20T00:53:26.786Z,13.15
2022-10-20T00:55:55.158Z,13.18
2022-10-20T00:58:22.659Z,12.97
2022-10-20T01:00:53.242Z,12.82
2022-10-20T01:03:25.159Z,12.78
2022-10-20T01:05:52.857Z,12.83
2022-10-20T01:08:20.232Z,12.84
2022-10-20T01:11:14.891Z,12.87
2022-10-20T01:14:13.422Z,12.84
2022-10-20T01:17:12.661Z,12.76
2022-10-20T01:20:05.077Z,12.71
2022-10-20T01:23:09.661Z,12.72
2022-10-20T01:25:55.258Z,12.74
2022-10-20T01:28:41.346Z,12.61
2022-10-20T01:31:42.944Z,12.37
2022-10-20T01:34:53.015Z,12.66
2022-10-20T01:37:40.555Z,12.62
2022-10-20T01:40:45.269Z,12.56
2022-10-20T01:43:14.398Z,12.62
2022-10-20T01:45:44.560Z,12.69
2022-10-20T01:48:13.489Z,12.68
2022-10-20T01:50:41.870Z,12.77
2022-10-20T01:53:09.436Z,12.75
2022-10-20T01:55:38.017Z,12.65
2022-10-20T01:58:43.174Z,12.63
2022-10-20T02:01:29.492Z,12.58
2022-10-20T02:03:59.707Z,12.56
2022-10-20T02:06:45.344Z,12.36
2022-10-20T02:09:18.128Z,12.41
2022-10-20T02:11:51.101Z,12.46
2022-10-20T02:14:20.520Z,12.34
2022-10-20T02:16:59.881Z,12.06
2022-10-20T02:19:32.388Z,12.15
2022-10-20T02:22:00.237Z,11.87
2022-10-20T02:24:31.268Z,11.79
2022-10-20T02:27:01.955Z,11.80
2022-10-20T02:29:32.661Z,11.80
2022-10-20T02:32:00.485Z,11.65
2022-10-20T02:34:28.000Z,11.70
2022-10-20T02:36:58.575Z,11.61
2022-10-20T02:39:26.608Z,11.54
2022-10-20T02:41:54.735Z,11.71
2022-10-20T02:44:23.034Z,11.79
2022-10-20T02:46:50.442Z,11.73
2022-10-20T02:49:17.880Z,11.68
2022-10-20T02:51:45.554Z,11.79
2022-10-20T02:54:12.956Z,11.96
2022-10-20T02:56:40.366Z,12.02
2022-10-20T02:59:12.989Z,12.03
2022-10-20T03:01:41.084Z,11.98
2022-10-20T03:04:08.950Z,11.75
2022-10-20T03:06:36.337Z,11.72
2022-10-20T03:09:04.123Z,11.79
2022-10-20T03:11:31.930Z,11.83
2022-10-20T03:13:59.364Z,11.80
2022-10-20T03:16:26.917Z,11.76
2022-10-20T03:18:55.487Z,11.78
2022-10-20T03:21:25.040Z,11.89
2022-10-20T03:23:52.439Z,11.93
2022-10-20T03:26:20.147Z,11.93
2022-10-20T03:28:47.651Z,11.89
2022-10-20T03:31:15.012Z,11.93
2022-10-20T03:33:42.746Z,11.92
2022-10-20T03:36:10.173Z,12.03
2022-10-20T03:38:37.632Z,11.85
2022-10-20T03:41:05.498Z,11.94
2022-10-20T03:43:32.995Z,11.88
2022-10-20T03:46:08.857Z,11.80
2022-10-20T03:48:37.199Z,11.87
2022-10-20T03:51:05.008Z,11.86
2022-10-20T03:53:32.820Z,11.81
2022-10-20T03:56:05.879Z,11.86
2022-10-20T03:58:33.314Z,11.83
2022-10-20T04:01:01.205Z,11.88
2022-10-20T04:03:28.882Z,11.92
2022-10-20T04:05:56.315Z,11.92
2022-10-20T04:08:23.732Z,11.78
2022-10-20T04:10:51.421Z,11.70
2022-10-20T04:13:18.861Z,11.68
2022-10-20T04:15:46.254Z,11.66
2022-10-20T04:18:14.071Z,11.48
2022-10-20T04:20:44.373Z,11.42
2022-10-20T04:23:12.387Z,11.54
2022-10-20T04:25:45.544Z,11.50
2022-10-20T04:28:14.305Z,11.43
2022-10-20T04:30:42.686Z,11.50
2022-10-20T04:33:10.875Z,11.49
2022-10-20T04:35:38.315Z,11.47
2022-10-20T04:38:06.097Z,11.33
2022-10-20T04:40:33.618Z,11.33
2022-10-20T04:43:01.285Z,11.30
2022-10-20T04:45:29.080Z,11.32
2022-10-20T04:47:56.605Z,11.47
2022-10-20T04:50:24.007Z,11.53
2022-10-20T04:53:07.879Z,11.36
2022-10-20T04:55:35.973Z,11.54
2022-10-20T04:58:03.666Z,11.64
2022-10-20T05:00:31.218Z,11.56
2022-10-20T05:02:58.751Z,11.56
2022-10-20T05:05:26.425Z,11.53
2022-10-20T05:07:53.842Z,11.47
2022-10-20T05:10:21.264Z,11.42
2022-10-20T05:12:49.027Z,11.32
2022-10-20T05:15:16.452Z,11.36
2022-10-20T05:17:43.834Z,11.36
2022-10-20T05:20:11.565Z,11.34
2022-10-20T05:22:39.270Z,11.34
2022-10-20T05:25:31.266Z,11.45
2022-10-20T05:27:55.021Z,11.39
2022-10-20T05:30:22.450Z,11.30
2022-10-20T05:32:49.888Z,11.34
2022-10-20T05:35:17.548Z,11.32
2022-10-20T05:37:44.968Z,11.28
2022-10-20T05:40:12.760Z,11.30
2022-10-20T05:42:40.520Z,11.18
2022-10-20T05:45:08.871Z,11.04
2022-10-20T05:47:36.313Z,11.39
2022-10-20T05:50:04.524Z,11.43
2022-10-20T05:52:31.954Z,11.48
2022-10-20T05:54:59.617Z,11.55
2022-10-20T05:57:27.303Z,11.37
2022-10-20T05:59:54.691Z,11.48
2022-10-20T06:02:22.297Z,11.61
2022-10-20T06:04:49.989Z,11.60
2022-10-20T06:07:17.440Z,11.60
2022-10-20T06:09:44.875Z,11.66
2022-10-20T06:12:12.577Z,11.37
2022-10-20T06:14:39.991Z,11.59
2022-10-20T06:17:07.491Z,11.67
2022-10-20T06:19:35.163Z,11.81
2022-10-20T06:22:05.865Z,11.85
2022-10-20T06:24:35.022Z,11.86
2022-10-20T06:27:02.444Z,12.18
2022-10-20T06:29:29.872Z,12.11
2022-10-20T06:31:57.577Z,12.37
2022-10-20T06:34:25.918Z,12.58
2022-10-20T06:36:53.466Z,12.58
2022-10-20T06:39:22.954Z,12.58
2022-10-20T06:41:52.889Z,12.66
2022-10-20T06:44:22.525Z,12.93
2022-10-20T06:46:52.445Z,13.04
2022-10-20T06:49:20.492Z,13.05
2022-10-20T06:51:48.248Z,13.11
2022-10-20T06:54:15.690Z,13.28
2022-10-20T06:56:43.242Z,13.24
2022-10-20T06:59:11.058Z,13.76
2022-10-20T07:01:39.398Z,13.47
2022-10-20T07:04:10.397Z,13.84
2022-10-20T07:06:39.854Z,13.22
2022-10-20T07:09:09.186Z,13.77
2022-10-20T07:11:36.729Z,13.51
2022-10-20T07:14:04.733Z,13.21
2022-10-20T07:16:33.803Z,13.63
2022-10-20T07:19:02.298Z,13.30
2022-10-20T07:21:34.982Z,13.33
2022-10-20T07:24:06.607Z,13.58
2022-10-20T07:26:36.290Z,13.28
2022-10-20T07:29:04.156Z,13.67
2022-10-20T07:31:33.330Z,13.64
2022-10-20T07:34:12.923Z,13.70
2022-10-20T07:36:49.319Z,13.81
2022-10-20T07:39:17.032Z,13.87
2022-10-20T07:41:47.300Z,14.13
2022-10-20T07:44:15.098Z,14.10
2022-10-20T07:46:42.868Z,13.29
2022-10-20T07:49:43.052Z,13.75
2022-10-20T07:51:58.221Z,14.08
2022-10-20T07:54:25.761Z,12.92
2022-10-20T07:56:53.294Z,13.36
2022-10-20T07:59:21.088Z,13.55
2022-10-20T08:01:48.595Z,13.05
2022-10-20T08:04:16.374Z,13.43
2022-10-20T08:06:43.824Z,13.85
2022-10-20T08:09:11.481Z,13.98
2022-10-20T08:11:39.158Z,13.75
2022-10-20T08:14:06.748Z,13.97
2022-10-20T08:16:36.741Z,13.98
2022-10-20T08:21:46.135Z,13.58
2022-10-20T08:24:13.886Z,13.86
2022-10-20T08:26:41.414Z,14.43
2022-10-20T08:29:08.960Z,14.61
2022-10-20T08:31:36.725Z,14.16
2022-10-20T08:34:04.358Z,14.25
2022-10-20T08:36:31.828Z,14.37
2022-10-20T08:39:03.489Z,14.26
2022-10-20T08:41:55.206Z,13.82
2022-10-20T08:44:27.397Z,14.57
2022-10-20T08:46:55.039Z,14.30
2022-10-20T08:49:28.104Z,14.19
2022-10-20T08:51:55.942Z,14.41
2022-10-20T08:54:23.408Z,14.63
2022-10-20T08:56:50.808Z,14.80
2022-10-20T08:59:21.430Z,14.66
2022-10-20T09:01:49.091Z,15.01
2022-10-20T09:04:20.497Z,14.65
2022-10-20T09:06:53.956Z,14.78
2022-10-20T09:09:22.310Z,14.58
2022-10-20T09:11:50.274Z,15.06
2022-10-20T09:14:17.740Z,14.75
2022-10-20T09:16:59.809Z,14.99
2022-10-20T09:19:29.124Z,15.39
2022-10-20T09:22:03.973Z,15.37
2022-10-20T09:24:32.058Z,15.26
2022-10-20T09:27:39.880Z,15.14
2022-10-20T09:30:26.049Z,14.78
2022-10-20T09:32:53.646Z,15.20
2022-10-20T09:35:27.995Z,15.07
2022-10-20T09:38:18.083Z,15.14
2022-10-20T09:41:02.590Z,15.50
2022-10-20T09:43:30.078Z,15.66
2022-10-20T09:46:05.230Z,15.06
2022-10-20T09:48:42.542Z,15.25
2022-10-20T09:51:14.857Z,15.40
2022-10-20T09:54:02.910Z,15.33
2022-10-20T09:56:36.773Z,15.53
2022-10-20T09:59:21.551Z,15.47
2022-10-20T10:01:59.247Z,15.35
2022-10-20T10:04:34.383Z,15.75
2022-10-20T10:07:03.791Z,15.82
2022-10-20T10:09:37.654Z,15.69
2022-10-20T10:12:16.716Z,15.95
2022-10-20T10:14:52.509Z,15.65
2022-10-20T10:17:40.453Z,15.65
2022-10-20T10:20:35.107Z,15.91
2022-10-20T10:23:20.937Z,15.79
2022-10-20T10:25:50.081Z,15.70
2022-10-20T10:28:31.727Z,16.29
2022-10-20T10:31:22.396Z,16.12
2022-10-20T10:33:52.601Z,15.32
2022-10-20T10:36:34.921Z,15.72
2022-10-20T10:39:04.740Z,15.51
2022-10-20T10:41:59.798Z,15.89
2022-10-20T10:44:45.717Z,15.94
2022-10-20T10:47:28.097Z,15.78
2022-10-20T10:50:17.320Z,16.01
2022-10-20T10:53:19.001Z,16.47
2022-10-20T10:56:28.245Z,15.89
2022-10-20T10:59:37.153Z,15.43
2022-10-20T11:02:41.907Z,16.48
2022-10-20T11:08:16.332Z,16.27
2022-10-20T11:11:02.541Z,16.31
2022-10-20T11:13:36.179Z,17.03
2022-10-20T11:16:21.800Z,16.71
2022-10-20T11:19:24.065Z,16.52
2022-10-20T11:22:16.320Z,16.79
2022-10-20T11:25:17.011Z,15.84
2022-10-20T11:27:44.852Z,15.98
2022-10-20T11:30:20.855Z,16.34
2022-10-20T11:33:12.263Z,16.76
2022-10-20T11:35:54.085Z,16.36
2022-10-20T11:38:40.196Z,16.69
2022-10-20T11:41:34.843Z,17.05
2022-10-20T11:44:06.516Z,16.68
2022-10-20T11:46:35.778Z,16.37
2022-10-20T11:49:04.474Z,16.38
2022-10-20T11:51:31.787Z,16.83
2022-10-20T11:54:21.092Z,16.95
2022-10-20T11:57:13.698Z,16.25
2022-10-20T12:00:12.258Z,16.47
2022-10-20T12:02:46.137Z,16.31
2022-10-20T12:05:57.896Z,15.89
2022-10-20T12:08:34.035Z,15.77
2022-10-20T12:11:32.511Z,16.88
2022-10-20T12:14:15.461Z,16.09
2022-10-20T12:16:52.158Z,16.83
2022-10-20T12:19:25.613Z,17.26
2022-10-20T12:21:54.328Z,16.89
2022-10-20T12:24:54.576Z,17.05
2022-10-20T12:27:24.200Z,17.25
2022-10-20T12:29:54.422Z,16.99
2022-10-20T12:32:22.065Z,17.37
2022-10-20T12:34:54.382Z,17.63
2022-10-20T12:37:25.279Z,17.43
2022-10-20T12:40:07.827Z,16.79
2022-10-20T12:42:40.440Z,17.56
2022-10-20T12:45:22.577Z,16.89
2022-10-20T12:47:52.447Z,17.25
2022-10-20T12:50:38.955Z,17.78
2022-10-20T12:53:11.791Z,17.42
2022-10-20T12:55:41.859Z,17.33
2022-10-20T12:58:34.272Z,17.40
2022-10-20T13:01:10.539Z,16.39
2022-10-20T13:03:40.140Z,16.29
2022-10-20T13:06:22.865Z,16.83
2022-10-20T13:09:10.575Z,17.17
2022-10-20T13:11:38.257Z,16.89
2022-10-20T13:14:12.171Z,17.16
2022-10-20T13:16:44.886Z,17.09
2022-10-20T13:19:22.190Z,17.48
2022-10-20T13:21:50.578Z,17.91
2022-10-20T13:24:23.731Z,17.34
2022-10-20T13:26:57.611Z,17.36
2022-10-20T13:29:36.314Z,17.45
2022-10-20T13:32:12.662Z,17.60
2022-10-20T13:35:04.450Z,17.91
2022-10-20T13:37:45.423Z,18.33
2022-10-20T13:40:30.961Z,17.52
2022-10-20T13:43:11.781Z,17.35
2022-10-20T13:46:04.082Z,17.64
2022-10-20T13:49:07.165Z,17.71
2022-10-20T13:51:47.522Z,17.80
2022-10-20T13:54:28.124Z,17.27
2022-10-20T13:56:56.084Z,17.79
2022-10-20T14:02:01.730Z,18.13
2022-10-20T14:04:35.870Z,18.13
2022-10-20T14:07:22.519Z,18.12
2022-10-20T14:09:57.274Z,17.80
2022-10-20T14:12:26.569Z,18.19
2022-10-20T14:15:01.470Z,18.51
2022-10-20T14:17:29.356Z,18.44
2022-10-20T14:20:17.753Z,18.05
2022-10-20T14:22:45.476Z,18.02
2022-10-20T14:25:13.266Z,17.79
2022-10-20T14:27:41.079Z,17.50
2022-10-20T14:30:13.940Z,17.92
2022-10-20T14:32:43.869Z,17.98
2022-10-20T14:35:29.939Z,18.35
2022-10-20T14:38:02.963Z,18.26
2022-10-20T14:40:33.596Z,18.44
2022-10-20T14:43:04.731Z,17.79
2022-10-20T14:48:06.213Z,18.02
2022-10-20T14:50:40.934Z,18.20
2022-10-20T14:53:27.440Z,18.43
2022-10-20T14:55:55.668Z,18.41
2022-10-20T14:58:37.137Z,18.48
2022-10-20T15:01:15.315Z,18.06
2022-10-20T15:03:44.538Z,18.34
2022-10-20T15:06:17.643Z,18.35
2022-10-20T15:08:53.692Z,18.06
2022-10-20T15:11:23.698Z,18.36
2022-10-20T15:13:53.405Z,18.49
2022-10-20T15:16:45.637Z,18.46
2022-10-20T15:19:36.420Z,18.49
2022-10-20T15:22:07.825Z,18.43
2022-10-20T15:24:36.617Z,18.52
2022-10-20T15:27:05.517Z,18.47
2022-10-20T15:29:34.047Z,18.26
2022-10-20T15:32:02.641Z,18.31
2022-10-20T15:34:30.615Z,18.22
2022-10-20T15:36:58.875Z,18.25
2022-10-20T15:39:27.389Z,18.22
2022-10-20T15:41:55.176Z,18.18
2022-10-20T15:44:23.574Z,18.14
2022-10-20T15:46:53.567Z,18.07
2022-10-20T15:49:21.400Z,18.01
2022-10-20T15:51:50.595Z,17.92
2022-10-20T15:54:20.802Z,17.91
2022-10-20T15:56:48.760Z,17.87
2022-10-20T15:59:16.251Z,17.73
2022-10-20T16:01:44.035Z,17.70
2022-10-20T16:04:23.242Z,17.58
2022-10-20T16:06:57.913Z,17.40
2022-10-20T16:09:28.264Z,17.38
2022-10-20T16:11:56.002Z,17.33
2022-10-20T16:14:23.980Z,17.13
2022-10-20T16:16:51.763Z,17.18
2022-10-20T16:19:19.377Z,17.11
2022-10-20T16:22:06.831Z,17.08
2022-10-20T16:24:56.182Z,17.04
2022-10-20T16:27:43.643Z,16.92
2022-10-20T16:30:31.281Z,16.94
2022-10-20T16:33:18.659Z,16.91
2022-10-20T16:35:46.381Z,16.81
2022-10-20T16:38:13.997Z,16.81
2022-10-20T16:40:42.614Z,16.82
2022-10-20T16:43:10.601Z,16.73
2022-10-20T16:45:39.544Z,16.68
2022-10-20T16:48:07.092Z,16.64
2022-10-20T16:50:34.868Z,16.67
2022-10-20T16:53:02.280Z,16.67
2022-10-20T16:55:29.819Z,16.47
2022-10-20T16:57:57.702Z,16.50
2022-10-20T17:00:25.226Z,16.41
2022-10-20T17:02:56.303Z,16.33
2022-10-20T17:05:26.499Z,16.26
2022-10-20T17:07:55.399Z,16.22
2022-10-20T17:10:23.149Z,16.09
2022-10-20T17:12:51.189Z,15.61
2022-10-20T17:15:18.685Z,15.69
2022-10-20T17:17:46.289Z,15.70
2022-10-20T17:20:14.366Z,15.63
2022-10-20T17:22:41.907Z,15.51
2022-10-20T17:25:09.774Z,15.38
2022-10-20T17:27:37.690Z,15.34
2022-10-20T17:30:05.873Z,15.23
2022-10-20T17:32:33.467Z,15.15
2022-10-20T17:35:01.393Z,15.06
2022-10-20T17:37:28.979Z,14.74
2022-10-20T17:39:57.695Z,14.75
2022-10-20T17:42:25.574Z,14.66
2022-10-20T17:44:53.242Z,14.57
2022-10-20T17:47:22.040Z,14.41
2022-10-20T17:49:49.937Z,14.12
2022-10-20T17:52:17.951Z,14.20
2022-10-20T17:54:45.606Z,14.13
2022-10-20T17:57:13.559Z,13.95
2022-10-20T17:59:52.461Z,13.91
2022-10-20T18:02:23.795Z,13.69
2022-10-20T18:04:52.382Z,13.60
2022-10-20T18:07:19.929Z,13.73
2022-10-20T18:09:47.645Z,13.84
2022-10-20T18:12:16.791Z,13.87
2022-10-20T18:14:44.823Z,13.86
2022-10-20T18:17:13.594Z,13.73
2022-10-20T18:19:41.620Z,13.77
2022-10-20T18:22:09.230Z,13.78
2022-10-20T18:24:37.357Z,13.77
2022-10-20T18:27:05.980Z,13.72
2022-10-20T18:29:33.658Z,13.73
2022-10-20T18:32:01.320Z,13.57
2022-10-20T18:34:29.039Z,13.52
2022-10-20T18:36:56.685Z,13.60
2022-10-20T18:39:24.459Z,13.42
2022-10-20T18:41:54.112Z,13.48
2022-10-20T18:44:22.008Z,13.32
2022-10-20T18:46:51.254Z,13.32
2022-10-20T18:49:21.469Z,13.39
2022-10-20T18:51:49.925Z,13.35
2022-10-20T18:54:21.300Z,13.21
2022-10-20T18:56:49.586Z,13.26
2022-10-20T18:59:17.922Z,13.23
2022-10-20T19:01:45.827Z,13.21
2022-10-20T19:04:13.982Z,13.16
2022-10-20T19:06:43.843Z,13.18
2022-10-20T19:09:20.680Z,13.16
2022-10-20T19:11:51.859Z,13.16
2022-10-20T19:14:19.523Z,13.12
2022-10-20T19:16:48.713Z,13.15
2022-10-20T19:19:17.244Z,13.19
2022-10-20T19:21:45.219Z,13.13
2022-10-20T19:24:21.485Z,13.09
2022-10-20T19:27:14.490Z,13.06
2022-10-20T19:29:43.636Z,12.95
2022-10-20T19:32:12.208Z,13.02
2022-10-20T19:34:40.842Z,13.07
2022-10-20T19:37:09.707Z,13.01
2022-10-20T19:39:40.181Z,13.07
2022-10-20T19:42:08.371Z,12.89
2022-10-20T19:44:36.207Z,13.02
2022-10-20T19:47:05.179Z,12.98
2022-10-20T19:49:32.873Z,12.96
2022-10-20T19:52:00.566Z,12.94
2022-10-20T19:54:28.578Z,12.83
2022-10-20T19:56:56.534Z,12.88
2022-10-20T19:59:24.260Z,12.66
2022-10-20T20:01:52.806Z,12.76
2022-10-20T20:04:20.819Z,12.65
2022-10-20T20:06:48.592Z,12.59
2022-10-20T20:09:16.083Z,12.53
2022-10-20T20:11:44.364Z,12.47
2022-10-20T20:14:17.743Z,12.49
2022-10-20T20:16:46.551Z,12.51
2022-10-20T20:19:16.516Z,12.44
2022-10-20T20:21:44.171Z,12.37
2022-10-20T20:24:13.545Z,12.36
2022-10-20T20:26:41.199Z,12.41
2022-10-20T20:29:09.740Z,12.31
2022-10-20T20:31:37.548Z,12.33
2022-10-20T20:34:05.407Z,12.33
2022-10-20T20:36:32.935Z,12.15
2022-10-20T20:39:01.271Z,12.09
2022-10-20T20:41:30.337Z,12.11
2022-10-20T20:43:57.838Z,11.98
2022-10-20T20:46:29.243Z,12.00
2022-10-20T20:48:57.578Z,12.05
2022-10-20T20:51:26.961Z,12.06
2022-10-20T20:53:55.117Z,12.09
2022-10-20T20:56:23.364Z,12.05
2022-10-20T20:58:55.255Z,12.10
2022-10-20T21:01:27.493Z,12.05
2022-10-20T21:03:56.676Z,11.95
2022-10-20T21:06:33.157Z,12.10
2022-10-20T21:09:01.907Z,11.98
2022-10-20T21:11:29.674Z,12.08
2022-10-20T21:13:59.051Z,12.04
2022-10-20T21:16:32.711Z,11.98
2022-10-20T21:19:05.174Z,11.98
2022-10-20T21:21:35.247Z,11.93
2022-10-20T21:24:04.453Z,12.15
2022-10-20T21:26:32.481Z,12.17
2022-10-20T21:29:00.314Z,12.22
2022-10-20T21:31:29.082Z,12.20
2022-10-20T21:33:59.644Z,12.26
2022-10-20T21:36:28.841Z,12.27
2022-10-20T21:38:56.529Z,12.30
2022-10-20T21:41:26.531Z,12.38
2022-10-20T21:43:56.615Z,12.30
2022-10-20T21:46:31.467Z,12.30
2022-10-20T21:49:01.867Z,12.32
2022-10-20T21:51:34.192Z,12.40
2022-10-20T21:54:04.535Z,12.21
2022-10-20T21:56:36.303Z,12.29
2022-10-20T21:59:05.518Z,12.29
2022-10-20T22:01:33.388Z,12.22
2022-10-20T22:04:01.181Z,12.25
2022-10-20T22:06:28.579Z,12.08
2022-10-20T22:08:57.787Z,12.08
2022-10-20T22:11:31.822Z,12.14
2022-10-20T22:13:59.471Z,12.40
2022-10-20T22:16:29.289Z,12.61
2022-10-20T22:19:04.045Z,12.46
2022-10-20T22:21:32.158Z,12.64
2022-10-20T22:24:00.511Z,12.61
2022-10-20T22:26:29.520Z,12.52
2022-10-20T22:28:58.242Z,12.68
2022-10-20T22:31:25.989Z,12.62
2022-10-20T22:33:55.541Z,12.64
2022-10-20T22:36:23.844Z,12.58
2022-10-20T22:38:51.398Z,12.54
2022-10-20T22:41:18.861Z,12.65
2022-10-20T22:43:47.014Z,12.52
2022-10-20T22:46:15.963Z,12.47
2022-10-20T22:48:44.187Z,12.50
2022-10-20T22:51:12.383Z,12.58
2022-10-20T22:53:39.807Z,12.46
2022-10-20T22:56:10.120Z,12.52
2022-10-20T22:58:38.498Z,12.60
2022-10-20T23:01:10.489Z,12.62
2022-10-20T23:03:38.775Z,12.50
2022-10-20T23:06:08.043Z,12.48
2022-10-20T23:08:40.378Z,12.52
2022-10-20T23:11:08.231Z,12.47
2022-10-20T23:13:35.764Z,12.44
2022-10-20T23:16:03.801Z,12.46
2022-10-20T23:18:31.752Z,12.48
2022-10-20T23:20:59.269Z,12.45
2022-10-20T23:23:26.823Z,12.51
2022-10-20T23:25:54.827Z,12.49
2022-10-20T23:28:22.273Z,12.40
2022-10-20T23:30:49.769Z,12.57
2022-10-20T23:33:17.558Z,12.61
2022-10-20T23:35:46.765Z,12.66
2022-10-20T23:38:14.201Z,12.73
2022-10-20T23:40:41.915Z,12.65
2022-10-20T23:43:09.332Z,12.72
2022-10-20T23:45:37.762Z,12.74
2022-10-20T23:48:05.683Z,12.75
2022-10-20T23:50:33.095Z,12.75
2022-10-20T23:53:00.571Z,12.79
2022-10-20T23:55:28.494Z,12.76
2022-10-20T23:57:56.013Z,12.66
